Midnight Dream — YJWE4 — position and weather

sailwx.info

Track history (hours):
 
Tides and Currents Weather Stations Pressure Air Temp Water Temp Dewpoint Dewpoint Depression Visibility Wind Speed Wind Dir Waves Ship Positions

Midnight Dream

Last reported at 2017-Nov-17 20:51 UTC. Time now 2017-Nov-20 20:57 UTC.
Position N 19°49' W 069°26'.

Length 90 m; draft 14.5 m.

Type: Cargo ship. MMSI: 577368000.

Date/timePositionNaut miles runAvg speedWind from/ knotsBaromVisibWave heightAir tempDewpointWater temp
2017-Nov-17 20:51N 19°49' W 069°26'712.5
2017-Nov-17 20:17N 19°46' W 069°19'312.3
2017-Nov-17 20:00N 19°44' W 069°16'612.3
2017-Nov-17 19:30N 19°42' W 069°10'40010.7
2017-Nov-16 06:17N 17°25' W 062°34'312.0
2017-Nov-16 06:00N 17°24' W 062°30'611.8
2017-Nov-16 05:30N 17°21' W 062°25'612.0
2017-Nov-16 05:00N 17°19' W 062°19'612.0
2017-Nov-16 04:30N 17°16' W 062°13'611.8
2017-Nov-16 04:00N 17°14' W 062°08'611.9
2017-Nov-16 03:30N 17°12' W 062°02'611.9
2017-Nov-16 03:00N 17°10' W 061°56'5 9.7
2017-Nov-16 02:30N 17°07' W 061°51'0 0.1
2017-Nov-16 02:00N 17°07' W 061°51'0 0.0
2017-Nov-16 01:30N 17°07' W 061°51'0 0.0
2017-Nov-16 01:00N 17°07' W 061°51'0 0.0
2017-Nov-16 00:30N 17°07' W 061°51'0 0.0
2017-Nov-16 00:00N 17°07' W 061°51'0 0.0
2017-Nov-15 23:30N 17°07' W 061°51'0 0.1
2017-Nov-15 23:00N 17°08' W 061°51'0 0.0
2017-Nov-15 22:30N 17°08' W 061°51'0 0.0
2017-Nov-15 22:00N 17°08' W 061°51'1 2.8
2017-Nov-15 21:30N 17°08' W 061°53'1 1.0
2017-Nov-15 21:00N 17°08' W 061°53'611.1
2017-Nov-15 20:30N 17°10' W 061°59'611.3
2017-Nov-15 20:00N 17°12' W 062°04'611.4
2017-Nov-15 19:30N 17°15' W 062°10'611.5
2017-Nov-15 19:00N 17°17' W 062°15'611.4
2017-Nov-15 18:30N 17°19' W 062°21'611.4
2017-Nov-15 18:00N 17°22' W 062°26'  
2017-Nov-11 22:01N 16°48' W 062°13'0 2.3
2017-Nov-11 22:00N 16°48' W 062°12'0 0.2
2017-Nov-11 21:30N 16°48' W 062°12'0 0.0
2017-Nov-11 21:00N 16°48' W 062°12'0 0.0
2017-Nov-11 20:30N 16°48' W 062°12'0 0.0
2017-Nov-11 20:00N 16°48' W 062°12'0 0.0
2017-Nov-11 19:30N 16°48' W 062°12'1 1.8
2017-Nov-11 19:00N 16°48' W 062°13'611.7
2017-Nov-11 18:30N 16°52' W 062°18'611.7
2017-Nov-11 18:00N 16°55' W 062°23'  
2017-Nov-08 20:26N 17°25' W 062°36'510.3
2017-Nov-08 19:58N 17°23' W 062°31'510.4
2017-Nov-08 19:30N 17°21' W 062°26'510.4
2017-Nov-08 19:00N 17°19' W 062°21'510.2
2017-Nov-08 18:30N 17°17' W 062°16'510.3
2017-Nov-08 18:00N 17°15' W 062°12'510.8
2017-Nov-08 17:30N 17°13' W 062°06'510.9
2017-Nov-08 17:00N 17°11' W 062°01'510.8
2017-Nov-08 16:30N 17°09' W 061°56'5 9.2
2017-Nov-08 16:01N 17°07' W 061°51'0 0.1
2017-Nov-08 15:30N 17°07' W 061°51'0 0.0
2017-Nov-08 15:00N 17°07' W 061°51'0 0.0
2017-Nov-08 14:30N 17°07' W 061°51'0 0.0
2017-Nov-08 14:00N 17°07' W 061°51'0 0.0
2017-Nov-08 13:30N 17°07' W 061°51'0 0.0
2017-Nov-08 13:00N 17°07' W 061°51'0 0.1
2017-Nov-08 12:30N 17°08' W 061°51'0 0.0
2017-Nov-08 12:00N 17°08' W 061°51'0 0.0
2017-Nov-08 11:30N 17°08' W 061°51'0 0.0
2017-Nov-08 11:00N 17°08' W 061°51'2 3.1
2017-Nov-08 10:30N 17°08' W 061°53'4 8.2
2017-Nov-08 10:00N 17°07' W 061°57'611.1
2017-Nov-08 09:30N 17°07' W 062°03'39 5.0
2017-Nov-08 01:42N 17°16' W 062°43'  
Track history (hours):
 
Tides and Currents Weather Stations Pressure Air Temp Water Temp Dewpoint Dewpoint Depression Visibility Wind Speed Wind Dir Waves Ship Positions

Midnight Dream

Last reported at 2017-Nov-17 20:51 UTC. Time now 2017-Nov-20 20:57 UTC.
Position N 19°49' W 069°26'.

Length 90 m; draft 14.5 m.

Type: Cargo ship. MMSI: 577368000.

Date/timePositionNaut miles runAvg speedWind from/ knotsBaromVisibWave heightAir tempDewpointWater temp
2017-Nov-17 20:51N 19°49' W 069°26'712.5
2017-Nov-17 20:17N 19°46' W 069°19'312.3
2017-Nov-17 20:00N 19°44' W 069°16'612.3
2017-Nov-17 19:30N 19°42' W 069°10'40010.7
2017-Nov-16 06:17N 17°25' W 062°34'312.0
2017-Nov-16 06:00N 17°24' W 062°30'611.8
2017-Nov-16 05:30N 17°21' W 062°25'612.0
2017-Nov-16 05:00N 17°19' W 062°19'612.0
2017-Nov-16 04:30N 17°16' W 062°13'611.8
2017-Nov-16 04:00N 17°14' W 062°08'611.9
2017-Nov-16 03:30N 17°12' W 062°02'611.9
2017-Nov-16 03:00N 17°10' W 061°56'5 9.7
2017-Nov-16 02:30N 17°07' W 061°51'0 0.1
2017-Nov-16 02:00N 17°07' W 061°51'0 0.0
2017-Nov-16 01:30N 17°07' W 061°51'0 0.0
2017-Nov-16 01:00N 17°07' W 061°51'0 0.0
2017-Nov-16 00:30N 17°07' W 061°51'0 0.0
2017-Nov-16 00:00N 17°07' W 061°51'0 0.0
2017-Nov-15 23:30N 17°07' W 061°51'0 0.1
2017-Nov-15 23:00N 17°08' W 061°51'0 0.0
2017-Nov-15 22:30N 17°08' W 061°51'0 0.0
2017-Nov-15 22:00N 17°08' W 061°51'1 2.8
2017-Nov-15 21:30N 17°08' W 061°53'1 1.0
2017-Nov-15 21:00N 17°08' W 061°53'611.1
2017-Nov-15 20:30N 17°10' W 061°59'611.3
2017-Nov-15 20:00N 17°12' W 062°04'611.4
2017-Nov-15 19:30N 17°15' W 062°10'611.5
2017-Nov-15 19:00N 17°17' W 062°15'611.4
2017-Nov-15 18:30N 17°19' W 062°21'611.4
2017-Nov-15 18:00N 17°22' W 062°26'  
2017-Nov-11 22:01N 16°48' W 062°13'0 2.3
2017-Nov-11 22:00N 16°48' W 062°12'0 0.2
2017-Nov-11 21:30N 16°48' W 062°12'0 0.0
2017-Nov-11 21:00N 16°48' W 062°12'0 0.0
2017-Nov-11 20:30N 16°48' W 062°12'0 0.0
2017-Nov-11 20:00N 16°48' W 062°12'0 0.0
2017-Nov-11 19:30N 16°48' W 062°12'1 1.8
2017-Nov-11 19:00N 16°48' W 062°13'611.7
2017-Nov-11 18:30N 16°52' W 062°18'611.7
2017-Nov-11 18:00N 16°55' W 062°23'  
2017-Nov-08 20:26N 17°25' W 062°36'510.3
2017-Nov-08 19:58N 17°23' W 062°31'510.4
2017-Nov-08 19:30N 17°21' W 062°26'510.4
2017-Nov-08 19:00N 17°19' W 062°21'510.2
2017-Nov-08 18:30N 17°17' W 062°16'510.3
2017-Nov-08 18:00N 17°15' W 062°12'510.8
2017-Nov-08 17:30N 17°13' W 062°06'510.9
2017-Nov-08 17:00N 17°11' W 062°01'510.8
2017-Nov-08 16:30N 17°09' W 061°56'5 9.2
2017-Nov-08 16:01N 17°07' W 061°51'0 0.1
2017-Nov-08 15:30N 17°07' W 061°51'0 0.0
2017-Nov-08 15:00N 17°07' W 061°51'0 0.0
2017-Nov-08 14:30N 17°07' W 061°51'0 0.0
2017-Nov-08 14:00N 17°07' W 061°51'0 0.0
2017-Nov-08 13:30N 17°07' W 061°51'0 0.0
2017-Nov-08 13:00N 17°07' W 061°51'0 0.1
2017-Nov-08 12:30N 17°08' W 061°51'0 0.0
2017-Nov-08 12:00N 17°08' W 061°51'0 0.0
2017-Nov-08 11:30N 17°08' W 061°51'0 0.0
2017-Nov-08 11:00N 17°08' W 061°51'2 3.1
2017-Nov-08 10:30N 17°08' W 061°53'4 8.2
2017-Nov-08 10:00N 17°07' W 061°57'611.1
2017-Nov-08 09:30N 17°07' W 062°03'39 5.0
2017-Nov-08 01:42N 17°16' W 062°43'  

Dump ship's entire track history